Time;durP1;ratioP1;P1;durP2;ratioP2;P2;SDS_P1;SDS_P2;PMS_P1;PMS_P2;Temp;Humidity;BMP_temperature;BMP_pressure;BME280_temperature;BME280_humidity;BME280_pressure;Samples;Min_cycle;Max_cycle;Signal;HPM_P1;HPM_P2
2022/10/13 00:00:31;;;;;;;31.55;18.40;;;9.30;99.90;;;;;;5021776;28;20647;-86
2022/10/13 00:03:01;;;;;;;31.48;17.85;;;9.30;99.90;;;;;;5035374;28;20032;-86
2022/10/13 00:05:28;;;;;;;30.35;17.67;;;9.20;99.90;;;;;;5056449;28;20742;-86
2022/10/13 00:07:55;;;;;;;28.17;17.27;;;9.20;99.90;;;;;;5038884;28;20032;-86
2022/10/13 00:10:21;;;;;;;30.63;17.23;;;9.10;99.90;;;;;;5054815;28;20028;-87
2022/10/13 00:12:46;;;;;;;30.80;16.45;;;9.10;99.90;;;;;;5054915;28;20036;-86
2022/10/13 00:15:13;;;;;;;30.05;17.48;;;9.10;99.90;;;;;;5037281;28;20028;-86
2022/10/13 00:17:40;;;;;;;27.77;16.73;;;9.10;99.90;;;;;;5038421;28;20034;-86
2022/10/13 00:20:07;;;;;;;29.05;16.60;;;9.10;99.90;;;;;;5039524;28;20036;-85
2022/10/13 00:22:33;;;;;;;30.30;16.70;;;9.10;99.90;;;;;;5071303;28;20476;-86
2022/10/13 00:25:00;;;;;;;29.48;17.42;;;9.10;99.90;;;;;;5055123;28;20088;-85
2022/10/13 00:27:26;;;;;;;30.35;17.65;;;9.10;99.90;;;;;;5070995;28;20037;-85
2022/10/13 00:29:51;;;;;;;30.52;16.45;;;9.10;99.90;;;;;;5038982;28;20445;-87
2022/10/13 00:32:17;;;;;;;31.15;17.58;;;9.10;99.90;;;;;;5054896;28;20036;-89
2022/10/13 00:34:43;;;;;;;32.35;17.08;;;9.10;99.90;;;;;;5054503;28;20028;-86
2022/10/13 00:37:09;;;;;;;35.45;18.92;;;9.10;99.90;;;;;;5054405;28;20090;-86
2022/10/13 00:39:36;;;;;;;34.60;19.13;;;9.10;99.90;;;;;;5052323;28;20040;-85
2022/10/13 00:42:03;;;;;;;29.10;16.98;;;9.10;99.90;;;;;;5045165;28;20047;-85
2022/10/13 00:45:01;;;;;;;32.67;17.20;;;9.10;99.90;;;;;;5054968;28;20138;-85
2022/10/13 00:47:44;;;;;;;27.35;15.68;;;9.10;99.90;;;;;;5063779;28;20029;-86
2022/10/13 00:50:17;;;;;;;29.10;16.05;;;9.10;99.90;;;;;;5053893;28;20024;-86
2022/10/13 00:52:47;;;;;;;28.58;16.67;;;9.00;99.90;;;;;;5054322;28;20115;-87
2022/10/13 00:55:19;;;;;;;28.42;16.42;;;9.00;99.90;;;;;;5054374;28;20039;-86
2022/10/13 00:57:47;;;;;;;26.02;15.18;;;9.00;99.90;;;;;;5053047;28;20033;-86
2022/10/13 01:00:13;;;;;;;25.30;14.38;;;8.90;99.90;;;;;;5052990;28;20035;-86
2022/10/13 01:02:39;;;;;;;29.30;15.52;;;8.80;99.90;;;;;;5058173;28;20047;-85
2022/10/13 01:05:06;;;;;;;22.08;12.32;;;8.80;99.90;;;;;;5036674;28;20033;-85
2022/10/13 01:07:33;;;;;;;28.15;16.33;;;8.80;99.90;;;;;;5052675;28;20483;-85
2022/10/13 01:10:01;;;;;;;31.08;16.25;;;8.80;99.90;;;;;;5055107;28;20028;-86
2022/10/13 01:12:52;;;;;;;30.67;16.83;;;8.80;99.90;;;;;;5053657;28;20039;-86
2022/10/13 01:15:50;;;;;;;30.17;16.90;;;8.70;99.90;;;;;;5054833;28;20469;-85
2022/10/13 01:18:37;;;;;;;27.55;16.80;;;8.70;99.90;;;;;;5054649;28;20032;-85
2022/10/13 01:21:27;;;;;;;36.75;18.17;;;8.70;99.90;;;;;;5055692;28;20028;-87
2022/10/13 01:24:18;;;;;;;29.60;16.88;;;8.70;99.90;;;;;;5040083;28;20032;-87
2022/10/13 01:27:06;;;;;;;30.02;17.25;;;8.60;99.90;;;;;;5069903;28;20016;-84
2022/10/13 01:30:04;;;;;;;33.50;16.85;;;8.60;99.90;;;;;;5067859;28;20032;-85
2022/10/13 01:32:53;;;;;;;30.35;15.77;;;8.60;99.90;;;;;;5053987;28;20074;-85
2022/10/13 01:35:41;;;;;;;29.30;16.00;;;8.60;99.90;;;;;;5050958;28;20098;-85
2022/10/13 01:38:13;;;;;;;25.88;14.40;;;8.60;99.90;;;;;;5064870;28;20402;-86
2022/10/13 01:40:46;;;;;;;23.75;13.52;;;8.50;99.90;;;;;;5071842;28;20085;-86
2022/10/13 01:43:28;;;;;;;22.08;12.80;;;8.60;99.90;;;;;;5052495;28;20508;-87
2022/10/13 01:46:18;;;;;;;23.13;13.15;;;8.50;99.90;;;;;;5045754;28;20433;-85
2022/10/13 01:48:45;;;;;;;25.10;14.73;;;8.60;99.90;;;;;;5054357;28;20062;-85
2022/10/13 01:51:15;;;;;;;26.98;16.40;;;8.60;99.90;;;;;;5073618;28;20033;-86
2022/10/13 01:53:42;;;;;;;30.70;16.55;;;8.60;99.90;;;;;;5071558;28;20112;-88
2022/10/13 01:56:08;;;;;;;31.88;17.17;;;8.70;99.90;;;;;;5047801;28;20036;-87
2022/10/13 01:58:36;;;;;;;33.83;18.45;;;8.80;99.90;;;;;;5068959;28;20064;-87
2022/10/13 02:01:17;;;;;;;41.95;21.35;;;8.90;99.90;;;;;;5061237;28;20051;-85
2022/10/13 02:03:59;;;;;;;38.95;20.48;;;9.00;99.90;;;;;;5073893;28;20063;-86
2022/10/13 02:06:30;;;;;;;37.47;19.85;;;9.00;99.90;;;;;;5069982;28;20059;-87
2022/10/13 02:09:36;;;;;;;35.65;19.25;;;9.10;99.90;;;;;;5045308;28;20382;-86
2022/10/13 02:12:10;;;;;;;36.80;19.37;;;9.10;99.90;;;;;;5057592;28;20060;-85
2022/10/13 02:14:41;;;;;;;40.42;21.27;;;9.10;99.90;;;;;;5053617;28;20427;-85
2022/10/13 02:17:06;;;;;;;45.20;21.83;;;9.20;99.90;;;;;;5058916;28;20036;-85
2022/10/13 02:19:36;;;;;;;40.00;20.33;;;9.20;99.90;;;;;;5058144;28;20180;-85
2022/10/13 02:22:03;;;;;;;44.40;20.58;;;9.20;99.90;;;;;;5036182;28;20029;-86
2022/10/13 02:24:29;;;;;;;38.92;21.05;;;9.20;99.90;;;;;;5066855;28;20118;-87
2022/10/13 02:26:56;;;;;;;38.00;19.92;;;9.20;99.90;;;;;;5054941;28;20405;-86
2022/10/13 02:29:22;;;;;;;35.55;19.33;;;9.10;99.90;;;;;;5046466;28;20025;-87
2022/10/13 02:31:48;;;;;;;39.15;20.13;;;9.10;99.90;;;;;;5041075;28;20064;-86
2022/10/13 02:34:14;;;;;;;40.58;20.42;;;9.10;99.90;;;;;;5043043;28;20091;-85
2022/10/13 02:36:45;;;;;;;41.78;20.40;;;9.10;99.90;;;;;;5052624;28;20036;-86
2022/10/13 02:39:11;;;;;;;40.28;21.05;;;9.10;99.90;;;;;;5068047;28;20479;-86
2022/10/13 02:41:37;;;;;;;37.47;20.88;;;9.10;99.90;;;;;;5029684;28;20055;-85
2022/10/13 02:44:04;;;;;;;38.67;19.63;;;9.00;99.90;;;;;;5037642;28;20029;-85
2022/10/13 02:46:35;;;;;;;40.35;19.40;;;9.10;99.90;;;;;;5050297;28;20039;-85
2022/10/13 02:49:01;;;;;;;33.17;19.40;;;9.10;99.90;;;;;;5049976;28;20025;-86
2022/10/13 02:51:27;;;;;;;35.38;17.70;;;9.00;99.90;;;;;;5056707;28;20039;-87
2022/10/13 02:53:53;;;;;;;33.15;18.38;;;9.00;99.90;;;;;;5036801;28;20056;-86
2022/10/13 02:56:19;;;;;;;35.35;18.77;;;9.00;99.90;;;;;;5054301;28;20029;-87
2022/10/13 02:58:45;;;;;;;30.67;17.70;;;9.00;99.90;;;;;;5041231;28;20481;-86
2022/10/13 03:01:13;;;;;;;32.80;17.75;;;9.00;99.90;;;;;;5040576;28;20097;-85
2022/10/13 03:03:39;;;;;;;32.83;18.30;;;8.90;99.90;;;;;;5072826;28;20055;-86
2022/10/13 03:06:06;;;;;;;27.92;16.13;;;8.90;99.90;;;;;;5057598;28;20033;-85
2022/10/13 03:08:33;;;;;;;26.73;16.15;;;8.90;99.90;;;;;;5057226;28;20035;-86
2022/10/13 03:10:59;;;;;;;29.95;16.83;;;8.80;99.90;;;;;;5048500;28;20741;-85
2022/10/13 03:13:26;;;;;;;29.40;16.00;;;8.80;99.90;;;;;;5070382;28;20098;-85
2022/10/13 03:15:51;;;;;;;28.63;15.82;;;8.80;99.90;;;;;;5072214;28;20040;-86
2022/10/13 03:18:17;;;;;;;26.63;15.85;;;8.80;99.90;;;;;;5058244;28;20029;-85
2022/10/13 03:20:43;;;;;;;32.38;15.75;;;8.70;99.90;;;;;;5057362;28;20115;-86
2022/10/13 03:23:09;;;;;;;27.00;15.38;;;8.60;99.90;;;;;;5080403;28;20036;-85
2022/10/13 03:25:36;;;;;;;26.35;15.63;;;8.60;99.90;;;;;;5071186;28;20040;-85
2022/10/13 03:28:02;;;;;;;25.33;14.75;;;8.60;99.90;;;;;;5040169;28;20155;-88
2022/10/13 03:30:28;;;;;;;27.85;15.15;;;8.50;99.90;;;;;;5027431;28;20096;-85
2022/10/13 03:32:54;;;;;;;27.25;15.65;;;8.50;99.90;;;;;;5024280;28;20029;-85
2022/10/13 03:35:19;;;;;;;24.40;15.10;;;8.60;99.90;;;;;;5057451;28;20044;-86
2022/10/13 03:37:45;;;;;;;32.60;16.98;;;8.50;99.90;;;;;;5040815;28;20131;-86
2022/10/13 03:40:11;;;;;;;25.92;14.95;;;8.50;99.90;;;;;;5037933;28;20115;-85
2022/10/13 03:42:37;;;;;;;28.10;15.68;;;8.40;99.90;;;;;;5070313;28;20469;-85
2022/10/13 03:45:05;;;;;;;33.63;17.98;;;8.40;99.90;;;;;;5047770;28;20020;-87
2022/10/13 03:47:35;;;;;;;30.10;16.60;;;8.40;99.90;;;;;;5057502;28;20039;-86
2022/10/13 03:50:01;;;;;;;26.65;15.98;;;8.40;99.90;;;;;;5056754;28;20508;-86
2022/10/13 03:52:28;;;;;;;26.13;15.98;;;8.40;99.90;;;;;;5052805;28;20044;-87
2022/10/13 03:54:54;;;;;;;30.40;16.27;;;8.40;99.90;;;;;;5055135;28;20028;-87
2022/10/13 03:57:20;;;;;;;31.02;17.77;;;8.40;99.90;;;;;;5056028;28;20404;-85
2022/10/13 03:59:46;;;;;;;27.73;16.45;;;8.40;99.90;;;;;;5047495;28;20081;-84
2022/10/13 04:02:12;;;;;;;33.33;17.88;;;8.40;99.90;;;;;;5044100;28;20052;-87
2022/10/13 04:04:38;;;;;;;32.08;17.20;;;8.40;99.90;;;;;;5052836;28;20047;-86
2022/10/13 04:07:04;;;;;;;35.13;18.77;;;8.50;99.90;;;;;;5056581;28;20066;-86
2022/10/13 04:09:30;;;;;;;34.20;19.83;;;8.60;99.90;;;;;;5036391;28;20029;-84
2022/10/13 04:11:55;;;;;;;33.47;18.40;;;8.60;99.90;;;;;;5050579;28;20472;-86
2022/10/13 04:14:21;;;;;;;38.83;19.38;;;8.60;99.90;;;;;;5023679;28;20055;-85
2022/10/13 04:16:47;;;;;;;36.38;19.85;;;8.60;99.90;;;;;;5056095;28;20632;-85
2022/10/13 04:19:14;;;;;;;33.08;18.77;;;8.60;99.90;;;;;;5030306;28;20047;-85
2022/10/13 04:21:40;;;;;;;32.22;18.92;;;8.50;99.90;;;;;;5027193;28;20124;-85
2022/10/13 04:24:07;;;;;;;32.08;17.05;;;8.50;99.90;;;;;;5056183;28;20028;-86
2022/10/13 04:26:35;;;;;;;28.95;16.20;;;8.50;99.90;;;;;;5054614;28;20052;-86
2022/10/13 04:29:06;;;;;;;31.13;16.95;;;8.50;99.90;;;;;;5049212;28;20443;-87
2022/10/13 04:31:34;;;;;;;32.70;17.25;;;8.40;99.90;;;;;;5046039;28;20066;-86
2022/10/13 04:33:59;;;;;;;40.80;20.27;;;8.40;99.90;;;;;;5056455;28;20021;-85
2022/10/13 04:36:26;;;;;;;45.60;21.50;;;8.50;99.90;;;;;;5060713;28;20062;-85
2022/10/13 04:38:53;;;;;;;36.17;19.85;;;8.70;99.90;;;;;;5063890;28;20078;-86
2022/10/13 04:41:19;;;;;;;36.45;19.10;;;8.70;99.90;;;;;;5053198;28;20472;-85
2022/10/13 04:43:49;;;;;;;33.60;18.27;;;8.60;99.90;;;;;;5057282;28;20563;-86
2022/10/13 04:46:26;;;;;;;32.70;17.33;;;8.60;99.90;;;;;;5039407;28;20032;-85
2022/10/13 04:48:54;;;;;;;30.70;16.98;;;8.60;99.90;;;;;;5062939;28;20021;-85
2022/10/13 04:51:22;;;;;;;30.05;17.23;;;8.60;99.90;;;;;;5036321;28;20035;-85
2022/10/13 04:53:52;;;;;;;34.38;17.02;;;8.60;99.90;;;;;;5057550;28;20112;-87
2022/10/13 04:56:18;;;;;;;31.08;17.38;;;8.60;99.90;;;;;;5054668;28;20036;-87
2022/10/13 04:58:45;;;;;;;30.65;16.15;;;8.60;99.90;;;;;;5064953;28;20561;-86
2022/10/13 05:01:14;;;;;;;36.58;18.77;;;8.60;99.90;;;;;;5060527;28;20098;-86
2022/10/13 05:03:41;;;;;;;34.55;18.92;;;8.60;99.90;;;;;;5053766;28;20140;-85
2022/10/13 05:06:13;;;;;;;33.20;18.00;;;8.50;99.90;;;;;;5043671;28;20501;-86
2022/10/13 05:08:39;;;;;;;32.13;17.63;;;8.50;99.90;;;;;;5067663;28;20560;-86
2022/10/13 05:11:05;;;;;;;32.40;18.20;;;8.60;99.90;;;;;;5017843;28;20120;-87
2022/10/13 05:13:30;;;;;;;32.38;17.48;;;8.50;99.90;;;;;;5051029;28;20116;-85
2022/10/13 05:15:56;;;;;;;30.80;17.70;;;8.60;99.90;;;;;;5038661;28;20028;-86
2022/10/13 05:18:23;;;;;;;38.13;19.38;;;8.60;99.90;;;;;;5050152;28;20059;-85
2022/10/13 05:20:48;;;;;;;34.58;18.48;;;8.60;99.90;;;;;;5059552;28;20381;-85
2022/10/13 05:23:15;;;;;;;39.40;21.08;;;8.60;99.90;;;;;;5017926;28;20036;-85
2022/10/13 05:25:41;;;;;;;35.83;19.35;;;8.60;99.90;;;;;;5059877;28;20039;-85
2022/10/13 05:28:12;;;;;;;37.50;19.95;;;8.50;99.90;;;;;;5039707;28;20085;-86
2022/10/13 05:30:38;;;;;;;29.42;17.27;;;8.50;99.90;;;;;;5045249;28;20032;-85
2022/10/13 05:33:04;;;;;;;32.72;17.60;;;8.50;99.90;;;;;;5050831;28;20033;-86
2022/10/13 05:35:30;;;;;;;31.13;16.50;;;8.50;99.90;;;;;;5057729;28;20142;-86
2022/10/13 05:37:55;;;;;;;36.38;18.42;;;8.50;99.90;;;;;;5051393;28;20194;-86
2022/10/13 05:40:21;;;;;;;31.25;17.70;;;8.50;99.90;;;;;;5033881;28;20401;-86
2022/10/13 05:42:51;;;;;;;32.75;17.88;;;8.50;99.90;;;;;;5039656;28;20040;-86
2022/10/13 05:45:20;;;;;;;39.15;20.60;;;8.50;99.90;;;;;;5053987;28;20448;-86
2022/10/13 05:47:46;;;;;;;33.45;18.80;;;8.60;99.90;;;;;;5053496;28;20122;-86
2022/10/13 05:50:12;;;;;;;33.83;18.40;;;8.70;99.90;;;;;;5046103;28;20564;-86
2022/10/13 05:52:39;;;;;;;32.90;17.83;;;8.70;99.90;;;;;;5051925;28;20552;-86
2022/10/13 05:55:09;;;;;;;29.35;17.23;;;8.80;99.90;;;;;;5033349;28;20033;-85
2022/10/13 05:57:41;;;;;;;31.83;18.08;;;8.70;99.90;;;;;;5067131;28;20077;-85
2022/10/13 06:00:08;;;;;;;33.85;17.55;;;8.70;99.90;;;;;;5053918;28;20089;-86
2022/10/13 06:02:43;;;;;;;38.55;17.95;;;8.70;99.90;;;;;;5055584;28;20073;-86
2022/10/13 06:05:14;;;;;;;32.15;17.65;;;8.70;99.90;;;;;;5054523;28;20024;-86
2022/10/13 06:07:42;;;;;;;34.60;18.77;;;8.80;99.90;;;;;;5054147;28;20717;-86
2022/10/13 06:10:08;;;;;;;36.17;18.17;;;8.90;99.90;;;;;;5054607;28;20029;-85
2022/10/13 06:12:35;;;;;;;29.55;16.45;;;8.90;99.90;;;;;;5019269;28;20054;-85
2022/10/13 06:15:01;;;;;;;29.85;18.48;;;9.00;99.90;;;;;;5079633;28;20108;-86
2022/10/13 06:17:27;;;;;;;33.45;18.10;;;9.00;99.90;;;;;;5039242;28;20119;-86
2022/10/13 06:19:53;;;;;;;34.75;19.45;;;9.10;99.90;;;;;;5066375;28;20040;-85
2022/10/13 06:22:20;;;;;;;33.72;18.70;;;9.10;99.90;;;;;;5026128;28;20041;-85
2022/10/13 06:24:47;;;;;;;37.25;19.65;;;9.10;99.90;;;;;;5051758;28;20028;-85
2022/10/13 06:27:12;;;;;;;35.50;18.15;;;9.10;99.90;;;;;;5038396;28;20056;-84
2022/10/13 06:29:39;;;;;;;35.95;19.20;;;9.10;99.90;;;;;;5034023;28;20526;-84
2022/10/13 06:32:05;;;;;;;33.85;18.70;;;9.20;99.90;;;;;;5048717;28;20032;-84
2022/10/13 06:34:31;;;;;;;34.20;19.83;;;9.30;99.90;;;;;;5028925;28;20887;-85
2022/10/13 06:36:57;;;;;;;31.45;18.58;;;9.30;99.90;;;;;;5051222;28;20028;-84
2022/10/13 06:39:23;;;;;;;34.75;19.35;;;9.40;99.90;;;;;;5036237;28;20040;-85
2022/10/13 06:41:49;;;;;;;34.03;18.70;;;9.40;99.90;;;;;;5039497;28;20039;-84
2022/10/13 06:44:15;;;;;;;34.90;20.13;;;9.40;99.90;;;;;;5045428;28;20040;-85
2022/10/13 06:46:41;;;;;;;36.65;19.40;;;9.40;99.90;;;;;;5057636;28;20031;-84
2022/10/13 06:49:09;;;;;;;31.35;18.52;;;9.40;99.90;;;;;;5057914;28;20043;-83
2022/10/13 06:51:35;;;;;;;40.95;20.40;;;9.40;99.90;;;;;;5072931;28;20052;-84
2022/10/13 06:54:01;;;;;;;37.78;19.67;;;9.50;99.90;;;;;;5048156;28;20021;-85
2022/10/13 06:56:28;;;;;;;37.72;20.17;;;9.60;99.90;;;;;;5035968;28;20083;-85
2022/10/13 06:58:56;;;;;;;38.10;21.33;;;9.60;99.90;;;;;;5038694;28;20101;-85
2022/10/13 07:01:22;;;;;;;34.40;18.88;;;9.60;99.90;;;;;;5039451;28;20450;-85
2022/10/13 07:03:49;;;;;;;37.20;20.50;;;9.60;99.90;;;;;;5053408;28;20036;-85
2022/10/13 07:06:18;;;;;;;37.05;20.02;;;9.60;99.90;;;;;;5054610;28;20028;-85
2022/10/13 07:08:43;;;;;;;35.78;19.60;;;9.60;99.90;;;;;;5034897;28;20386;-84
2022/10/13 07:11:12;;;;;;;37.75;19.65;;;9.60;99.90;;;;;;5070108;28;20032;-85
2022/10/13 07:13:38;;;;;;;38.42;20.98;;;9.70;99.90;;;;;;5053728;28;20178;-84
2022/10/13 07:16:05;;;;;;;42.08;21.48;;;9.70;99.90;;;;;;5050060;28;20035;-84
2022/10/13 07:18:31;;;;;;;36.67;19.52;;;9.70;99.90;;;;;;5033759;28;20037;-84
2022/10/13 07:20:58;;;;;;;36.05;20.48;;;9.80;99.90;;;;;;5052102;28;20078;-85
2022/10/13 07:23:25;;;;;;;37.97;20.55;;;9.90;99.90;;;;;;5029563;28;20032;-84
2022/10/13 07:25:51;;;;;;;38.22;21.02;;;10.00;99.90;;;;;;5067268;28;20032;-83
2022/10/13 07:28:17;;;;;;;38.40;21.17;;;10.00;99.90;;;;;;5033385;28;20060;-84
2022/10/13 07:30:44;;;;;;;47.10;22.75;;;10.10;99.90;;;;;;5032974;28;20031;-85
2022/10/13 07:33:09;;;;;;;37.85;21.27;;;10.10;99.90;;;;;;5053575;28;20396;-84
2022/10/13 07:35:38;;;;;;;40.40;19.58;;;10.00;99.90;;;;;;5037082;28;20626;-83
2022/10/13 07:38:05;;;;;;;35.35;20.23;;;10.10;99.90;;;;;;5051005;28;20028;-84
2022/10/13 07:40:31;;;;;;;36.60;20.25;;;10.10;99.90;;;;;;5048578;28;20037;-83
2022/10/13 07:42:57;;;;;;;41.80;22.40;;;10.20;99.90;;;;;;5066249;28;20028;-84
2022/10/13 07:45:23;;;;;;;38.58;20.50;;;10.30;99.90;;;;;;5067144;28;20610;-85
2022/10/13 07:47:49;;;;;;;34.42;19.83;;;10.30;99.90;;;;;;5038472;28;20021;-85
2022/10/13 07:50:14;;;;;;;42.15;22.55;;;10.40;99.90;;;;;;5049180;28;20441;-84
2022/10/13 07:52:40;;;;;;;39.85;21.33;;;10.40;99.90;;;;;;5069470;28;20033;-84
2022/10/13 07:55:10;;;;;;;40.75;21.05;;;10.50;99.90;;;;;;5065911;28;20122;-85
2022/10/13 07:57:36;;;;;;;39.80;22.10;;;10.50;99.90;;;;;;5042564;28;20204;-83
2022/10/13 08:00:04;;;;;;;40.80;22.45;;;10.60;99.90;;;;;;5036830;28;20040;-84
2022/10/13 08:02:38;;;;;;;36.50;21.15;;;10.70;99.90;;;;;;5051388;28;20090;-84
2022/10/13 08:05:04;;;;;;;39.42;22.05;;;10.70;99.90;;;;;;5066905;28;20024;-84
2022/10/13 08:07:30;;;;;;;41.70;21.52;;;10.60;99.90;;;;;;5036515;28;20029;-84
2022/10/13 08:09:56;;;;;;;37.15;20.77;;;10.70;99.90;;;;;;5049141;28;20044;-84
2022/10/13 08:12:22;;;;;;;33.22;20.05;;;10.70;99.90;;;;;;5040863;28;20036;-85
2022/10/13 08:14:51;;;;;;;35.75;20.02;;;10.80;99.90;;;;;;5040041;28;20032;-83
2022/10/13 08:17:17;;;;;;;34.28;19.27;;;10.80;99.90;;;;;;5059629;28;20544;-85
2022/10/13 08:19:43;;;;;;;35.25;19.50;;;10.80;99.90;;;;;;5056843;28;20067;-85
2022/10/13 08:22:10;;;;;;;34.97;20.65;;;10.90;99.90;;;;;;5043154;28;20059;-83
2022/10/13 08:24:35;;;;;;;33.78;18.85;;;10.90;99.90;;;;;;5046842;28;20100;-85
2022/10/13 08:27:01;;;;;;;35.42;20.48;;;10.90;99.90;;;;;;5051166;28;20229;-85
2022/10/13 08:29:27;;;;;;;33.42;18.77;;;10.90;99.90;;;;;;5045679;28;20025;-84
2022/10/13 08:31:53;;;;;;;37.95;21.15;;;11.00;99.90;;;;;;5045176;28;20055;-84
2022/10/13 08:34:20;;;;;;;47.47;22.80;;;11.00;99.90;;;;;;5061552;28;20060;-88
2022/10/13 08:36:46;;;;;;;39.33;20.98;;;11.10;99.90;;;;;;5063460;28;20123;-84
2022/10/13 08:39:12;;;;;;;41.03;22.98;;;11.10;99.90;;;;;;5037107;28;20032;-84
2022/10/13 08:41:44;;;;;;;41.60;23.08;;;11.10;99.90;;;;;;5037012;28;20040;-86
2022/10/13 08:44:31;;;;;;;35.45;21.20;;;11.10;99.90;;;;;;5037513;28;20040;-85
2022/10/13 08:47:14;;;;;;;38.63;22.77;;;11.10;99.90;;;;;;5075416;28;20377;-84
2022/10/13 08:49:42;;;;;;;47.33;23.80;;;11.20;99.90;;;;;;5044820;28;20041;-85
2022/10/13 08:52:28;;;;;;;42.05;23.13;;;11.30;99.90;;;;;;5023876;28;20496;-84
2022/10/13 08:54:55;;;;;;;40.13;23.40;;;11.40;99.90;;;;;;5048116;28;20027;-83
2022/10/13 08:57:22;;;;;;;40.92;22.30;;;11.50;99.90;;;;;;5050044;28;20382;-84
2022/10/13 08:59:48;;;;;;;42.13;22.38;;;11.60;99.90;;;;;;5052425;28;20111;-84
2022/10/13 09:02:30;;;;;;;47.30;23.77;;;11.70;99.90;;;;;;5049068;28;20039;-84
2022/10/13 09:05:00;;;;;;;48.35;23.92;;;11.90;99.90;;;;;;5049517;28;20032;-84
2022/10/13 09:07:31;;;;;;;54.60;24.88;;;12.00;99.90;;;;;;5047146;28;20032;-84
2022/10/13 09:09:57;;;;;;;52.53;25.92;;;12.20;99.90;;;;;;5025187;28;20029;-84
2022/10/13 09:12:24;;;;;;;48.00;24.60;;;12.40;99.90;;;;;;5046774;28;20584;-84
2022/10/13 09:15:19;;;;;;;50.42;23.77;;;12.50;99.90;;;;;;5014881;28;20041;-85
2022/10/13 09:18:09;;;;;;;45.00;23.13;;;12.60;99.90;;;;;;5048879;28;20041;-86
2022/10/13 09:20:35;;;;;;;51.47;24.95;;;12.70;99.90;;;;;;5052193;28;20025;-85
2022/10/13 09:23:13;;;;;;;48.05;23.20;;;12.80;99.90;;;;;;5055064;28;20112;-87
2022/10/13 09:25:42;;;;;;;47.55;21.85;;;12.90;99.90;;;;;;5059747;28;20036;-87
2022/10/13 09:28:26;;;;;;;42.65;21.35;;;13.00;99.90;;;;;;5066985;28;20056;-85
2022/10/13 09:31:29;;;;;;;46.10;22.52;;;13.00;99.90;;;;;;5042179;28;20044;-87
2022/10/13 09:34:12;;;;;;;41.45;20.90;;;13.00;99.90;;;;;;5026003;28;20429;-85
2022/10/13 09:36:38;;;;;;;39.65;20.15;;;12.90;99.90;;;;;;5063552;28;20055;-86
2022/10/13 09:39:11;;;;;;;43.40;21.48;;;12.90;99.90;;;;;;5062311;28;20637;-87
2022/10/13 09:41:39;;;;;;;41.25;20.83;;;12.80;99.90;;;;;;5056989;28;20047;-85
2022/10/13 09:44:11;;;;;;;36.60;19.60;;;12.80;99.90;;;;;;5044481;28;20040;-87
2022/10/13 09:46:46;;;;;;;29.75;17.98;;;12.70;99.90;;;;;;5044822;28;20040;-85
2022/10/13 09:49:39;;;;;;;40.40;22.25;;;12.70;99.90;;;;;;5072018;28;20670;-86
2022/10/13 09:52:17;;;;;;;36.78;19.05;;;12.60;99.90;;;;;;5041178;28;20045;-84
2022/10/13 09:54:48;;;;;;;43.15;20.85;;;12.60;99.90;;;;;;5075867;28;20035;-85
2022/10/13 09:57:23;;;;;;;45.20;19.55;;;12.60;99.90;;;;;;5036280;28;20094;-87
2022/10/13 10:00:03;;;;;;;43.15;21.20;;;12.50;99.90;;;;;;5050299;28;20040;-86
2022/10/13 10:02:56;;;;;;;39.30;19.55;;;12.50;99.90;;;;;;5059195;28;20207;-84
2022/10/13 10:05:47;;;;;;;42.43;20.30;;;12.50;99.90;;;;;;5057623;28;20028;-84
2022/10/13 10:08:16;;;;;;;50.35;21.92;;;12.50;99.90;;;;;;5065914;28;20485;-85
2022/10/13 10:10:42;;;;;;;35.83;19.00;;;12.50;99.90;;;;;;5069023;28;20024;-85
2022/10/13 10:13:12;;;;;;;37.83;18.67;;;12.50;99.90;;;;;;5031985;28;20079;-84
2022/10/13 10:15:52;;;;;;;36.58;18.98;;;12.40;99.90;;;;;;5049260;28;20036;-86
2022/10/13 10:18:28;;;;;;;48.13;20.13;;;12.40;99.90;;;;;;5064944;28;20135;-87
2022/10/13 10:21:06;;;;;;;39.78;19.52;;;12.40;99.90;;;;;;5073246;28;20228;-86
2022/10/13 10:23:48;;;;;;;40.55;20.45;;;12.40;99.90;;;;;;5065412;28;20060;-87
2022/10/13 10:26:20;;;;;;;38.97;19.80;;;12.40;99.90;;;;;;5048912;28;20497;-84
2022/10/13 10:29:08;;;;;;;36.55;18.88;;;12.50;99.90;;;;;;5057763;28;20453;-89
2022/10/13 10:32:17;;;;;;;37.40;18.20;;;12.60;99.90;;;;;;5066635;28;20028;-86
2022/10/13 10:35:10;;;;;;;32.38;17.40;;;12.60;99.90;;;;;;5048414;28;20550;-84
2022/10/13 10:37:50;;;;;;;34.83;17.60;;;12.80;99.90;;;;;;5044847;28;20094;-84
2022/10/13 10:40:35;;;;;;;40.35;18.23;;;12.80;99.90;;;;;;5059845;28;20027;-84
2022/10/13 10:43:21;;;;;;;32.75;17.70;;;12.90;99.90;;;;;;5061514;28;20169;-85
2022/10/13 10:45:47;;;;;;;;;;;13.00;99.90;;;;;;5045030;28;20178;-86
2022/10/13 10:48:15;;;;;;;;;;;13.20;99.90;;;;;;5051286;28;19935;-90
2022/10/13 10:50:41;;;;;;;28.30;16.05;;;13.20;99.90;;;;;;5047704;28;20000;-85
2022/10/13 10:53:30;;;;;;;32.03;15.88;;;13.30;99.90;;;;;;5052814;28;20068;-87
2022/10/13 10:56:16;;;;;;;29.30;15.27;;;13.30;99.90;;;;;;5068029;28;20131;-85
2022/10/13 10:59:11;;;;;;;32.72;17.58;;;13.40;99.90;;;;;;5054903;28;20032;-85
2022/10/13 11:01:58;;;;;;;33.03;16.08;;;13.50;99.90;;;;;;5054191;28;20044;-85
2022/10/13 11:04:47;;;;;;;28.65;15.27;;;13.50;99.90;;;;;;5065340;28;20032;-85
2022/10/13 11:07:33;;;;;;;28.98;15.13;;;13.70;99.90;;;;;;5054197;28;20135;-86
2022/10/13 11:10:00;;;;;;;27.15;15.00;;;13.70;99.90;;;;;;5062735;28;20252;-83
2022/10/13 11:12:44;;;;;;;24.92;14.35;;;13.70;99.90;;;;;;5050612;28;20639;-88
2022/10/13 11:15:12;;;;;;;25.65;15.68;;;13.70;99.90;;;;;;5035111;28;20028;-85
2022/10/13 11:17:39;;;;;;;25.88;15.02;;;13.70;99.90;;;;;;5072352;28;20033;-87
2022/10/13 11:20:20;;;;;;;24.35;14.02;;;13.80;99.90;;;;;;5054558;28;20040;-84
2022/10/13 11:22:58;;;;;;;26.58;14.48;;;13.80;99.90;;;;;;5051752;28;20128;-85
2022/10/13 11:25:42;;;;;;;28.55;14.35;;;13.80;99.90;;;;;;5052407;28;20068;-86
2022/10/13 11:28:20;;;;;;;23.00;14.13;;;13.80;99.90;;;;;;5055760;28;20017;-84
2022/10/13 11:30:55;;;;;;;25.05;14.63;;;13.80;99.90;;;;;;5055832;28;20666;-87
2022/10/13 11:33:39;;;;;;;25.27;13.95;;;13.90;99.90;;;;;;5051281;28;20132;-86
2022/10/13 11:36:26;;;;;;;28.52;15.02;;;14.00;99.90;;;;;;5053204;28;20044;-89
2022/10/13 11:38:59;;;;;;;22.67;13.38;;;14.10;99.90;;;;;;5066139;28;20512;-84
2022/10/13 11:41:30;;;;;;;22.73;12.48;;;14.20;99.90;;;;;;5069665;28;20032;-84
2022/10/13 11:44:22;;;;;;;18.73;12.88;;;14.20;99.90;;;;;;5054399;28;20040;-87
2022/10/13 11:47:08;;;;;;;23.90;13.00;;;14.30;99.90;;;;;;5053290;28;20021;-83
2022/10/13 11:49:40;;;;;;;22.27;12.50;;;14.40;99.90;;;;;;5053855;28;20696;-84
2022/10/13 11:52:27;;;;;;;21.38;12.20;;;14.50;99.90;;;;;;5053019;28;20056;-85
2022/10/13 11:55:04;;;;;;;23.55;12.57;;;14.60;99.90;;;;;;5053910;28;20029;-86
2022/10/13 11:57:32;;;;;;;20.08;10.88;;;14.60;99.90;;;;;;5053867;28;20032;-86
2022/10/13 12:00:11;;;;;;;20.00;11.73;;;14.60;99.90;;;;;;5037969;28;20444;-87
2022/10/13 12:02:49;;;;;;;22.63;12.40;;;14.60;99.90;;;;;;5054653;28;20036;-85
2022/10/13 12:05:28;;;;;;;19.30;11.23;;;14.50;99.90;;;;;;5038330;28;20037;-85
2022/10/13 12:07:59;;;;;;;17.33;10.40;;;14.60;99.90;;;;;;5036530;28;20055;-85
2022/10/13 12:10:36;;;;;;;19.35;10.45;;;14.60;99.90;;;;;;5053531;28;20032;-86
2022/10/13 12:13:05;;;;;;;20.25;12.77;;;14.70;99.90;;;;;;5069554;28;20056;-85
2022/10/13 12:15:35;;;;;;;19.60;11.00;;;14.70;99.90;;;;;;5036028;28;20028;-86
2022/10/13 12:18:17;;;;;;;18.75;10.95;;;14.70;99.90;;;;;;5069776;28;20676;-86
2022/10/13 12:20:51;;;;;;;24.88;12.25;;;14.70;99.90;;;;;;5053686;28;20095;-87
2022/10/13 12:23:17;;;;;;;18.15;11.02;;;14.80;99.90;;;;;;5053847;28;20028;-86
2022/10/13 12:25:48;;;;;;;15.68;9.88;;;14.80;99.90;;;;;;5069047;28;20035;-86
2022/10/13 12:28:18;;;;;;;19.02;10.98;;;14.80;99.90;;;;;;5052797;28;20029;-89
2022/10/13 12:30:53;;;;;;;15.80;10.52;;;14.90;99.90;;;;;;5036480;28;20033;-87
2022/10/13 12:33:37;;;;;;;20.60;11.25;;;14.90;99.90;;;;;;5036194;28;20507;-85
2022/10/13 12:36:18;;;;;;;17.97;11.07;;;14.90;99.90;;;;;;5051930;28;20024;-86
2022/10/13 12:38:53;;;;;;;22.65;11.45;;;14.80;99.90;;;;;;5068516;28;20116;-88
2022/10/13 12:41:31;;;;;;;17.83;10.10;;;14.80;99.90;;;;;;5035430;28;20037;-88
2022/10/13 12:43:57;;;;;;;20.27;11.07;;;14.80;99.90;;;;;;5048978;28;20091;-88
2022/10/13 12:46:40;;;;;;;21.52;11.43;;;15.00;99.90;;;;;;5032901;28;20033;-86
2022/10/13 12:49:26;;;;;;;16.45;10.07;;;15.00;99.90;;;;;;5036987;28;20443;-87
2022/10/13 12:52:04;;;;;;;15.48;10.00;;;15.10;99.90;;;;;;5052672;28;20048;-88
2022/10/13 12:54:33;;;;;;;18.90;9.88;;;15.20;99.90;;;;;;5068859;28;20044;-89